createdAt,value
2022-08-28T00:00:41.757Z,19.12
2022-08-28T00:05:44.904Z,19.08
2022-08-28T00:10:47.081Z,18.99
2022-08-28T00:15:58.204Z,19.00
2022-08-28T00:21:00.892Z,19.01
2022-08-28T00:26:02.763Z,18.88
2022-08-28T00:31:05.227Z,18.86
2022-08-28T00:36:07.064Z,18.88
2022-08-28T00:41:09.078Z,18.78
2022-08-28T00:46:24.165Z,18.87
2022-08-28T00:51:46.774Z,18.79
2022-08-28T00:56:50.080Z,18.86
2022-08-28T01:01:58.899Z,18.85
2022-08-28T01:07:07.937Z,18.81
2022-08-28T01:12:22.741Z,18.87
2022-08-28T01:17:31.244Z,18.88
2022-08-28T01:23:20.207Z,18.87
2022-08-28T01:28:21.955Z,18.77
2022-08-28T01:33:28.020Z,18.86
2022-08-28T01:38:30.209Z,18.93
2022-08-28T01:43:32.156Z,18.87
2022-08-28T01:48:41.582Z,18.91
2022-08-28T01:53:46.687Z,18.88
2022-08-28T01:58:48.826Z,18.88
2022-08-28T02:03:53.080Z,18.84
2022-08-28T02:08:55.533Z,18.78
2022-08-28T02:13:57.263Z,18.74
2022-08-28T02:19:00.678Z,18.70
2022-08-28T02:24:04.448Z,18.60
2022-08-28T02:29:06.405Z,18.63
2022-08-28T02:34:09.331Z,18.59
2022-08-28T02:39:11.512Z,18.51
2022-08-28T02:44:13.251Z,18.41
2022-08-28T02:49:14.986Z,18.27
2022-08-28T02:54:18.525Z,18.29
2022-08-28T02:59:21.175Z,18.19
2022-08-28T03:04:22.936Z,18.19
2022-08-28T03:09:25.279Z,18.23
2022-08-28T03:14:27.747Z,18.10
2022-08-28T03:19:29.556Z,18.11
2022-08-28T03:24:31.281Z,18.06
2022-08-28T03:29:33.000Z,18.01
2022-08-28T03:34:34.692Z,18.02
2022-08-28T03:39:36.414Z,18.04
2022-08-28T03:44:39.663Z,18.05
2022-08-28T03:49:41.435Z,18.10
2022-08-28T03:54:43.513Z,18.05
2022-08-28T03:59:51.587Z,18.01
2022-08-28T04:04:53.312Z,17.98
2022-08-28T04:09:55.054Z,17.93
2022-08-28T04:14:56.905Z,17.89
2022-08-28T04:19:58.713Z,17.86
2022-08-28T04:25:01.042Z,17.85
2022-08-28T04:30:04.612Z,17.78
2022-08-28T04:35:12.004Z,17.77
2022-08-28T04:40:14.885Z,17.63
2022-08-28T04:45:16.794Z,17.63
2022-08-28T04:50:18.515Z,17.57
2022-08-28T04:55:27.416Z,17.53
2022-08-28T05:00:45.981Z,17.53
2022-08-28T05:05:53.350Z,17.46
2022-08-28T05:10:57.916Z,17.54
2022-08-28T05:16:04.087Z,17.55
2022-08-28T05:21:21.331Z,17.49
2022-08-28T05:26:23.521Z,17.41
2022-08-28T05:31:31.986Z,17.45
2022-08-28T05:36:38.396Z,17.46
2022-08-28T05:41:45.559Z,17.54
2022-08-28T05:46:48.687Z,17.49
2022-08-28T05:51:50.580Z,17.40
2022-08-28T05:56:52.297Z,17.44
2022-08-28T06:01:54.057Z,17.50
2022-08-28T06:06:56.169Z,17.60
2022-08-28T06:12:02.252Z,17.61
2022-08-28T06:17:05.044Z,17.52
2022-08-28T06:22:07.668Z,17.55
2022-08-28T06:27:09.549Z,17.55
2022-08-28T06:32:11.375Z,17.50
2022-08-28T06:37:13.130Z,17.51
2022-08-28T06:42:14.857Z,17.57
2022-08-28T06:47:16.557Z,17.40
2022-08-28T06:52:19.179Z,17.36
2022-08-28T06:57:20.885Z,17.58
2022-08-28T07:02:22.726Z,17.98
2022-08-28T07:07:31.444Z,18.11
2022-08-28T07:12:33.926Z,18.27
2022-08-28T07:17:36.058Z,18.30
2022-08-28T07:22:41.008Z,18.53
2022-08-28T07:27:43.662Z,18.44
2022-08-28T07:32:49.124Z,18.56
2022-08-28T07:37:50.829Z,18.61
2022-08-28T07:43:10.998Z,18.82
2022-08-28T07:48:13.121Z,18.93
2022-08-28T07:53:15.390Z,18.61
2022-08-28T07:58:20.372Z,18.93
2022-08-28T08:03:22.904Z,18.89
2022-08-28T08:08:25.822Z,18.47
2022-08-28T08:13:30.118Z,18.36
2022-08-28T08:18:32.070Z,18.44
2022-08-28T08:23:35.797Z,18.40
2022-08-28T08:28:41.127Z,18.29
2022-08-28T08:33:48.022Z,18.30
2022-08-28T08:38:59.972Z,18.33
2022-08-28T08:44:34.717Z,18.55
2022-08-28T08:49:54.028Z,18.31
2022-08-28T08:55:34.162Z,18.53
2022-08-28T09:01:00.982Z,18.58
2022-08-28T09:06:05.666Z,18.40
2022-08-28T09:11:52.246Z,18.33
2022-08-28T09:17:00.553Z,18.43
2022-08-28T09:22:02.993Z,18.48
2022-08-28T09:27:26.822Z,18.70
2022-08-28T09:32:38.591Z,18.81
2022-08-28T09:37:43.883Z,18.94
2022-08-28T09:43:30.000Z,19.19
2022-08-28T09:48:41.166Z,19.15
2022-08-28T09:53:52.059Z,19.24
2022-08-28T09:59:04.889Z,19.15
2022-08-28T10:04:53.224Z,19.22
2022-08-28T10:10:13.037Z,19.17
2022-08-28T10:15:24.694Z,19.11
2022-08-28T10:21:08.428Z,18.98
2022-08-28T10:26:43.298Z,18.93
2022-08-28T10:32:31.316Z,19.01
2022-08-28T10:38:17.585Z,19.01
2022-08-28T10:43:34.143Z,18.96
2022-08-28T10:48:49.624Z,18.90
2022-08-28T10:54:02.984Z,18.78
2022-08-28T10:59:04.807Z,18.67
2022-08-28T11:04:25.168Z,18.64
2022-08-28T11:09:42.483Z,18.47
2022-08-28T11:14:51.068Z,18.43
2022-08-28T11:20:25.001Z,18.46
2022-08-28T11:25:33.363Z,18.42
2022-08-28T11:30:37.325Z,18.35
2022-08-28T11:35:51.600Z,18.31
2022-08-28T11:41:09.484Z,18.39
2022-08-28T11:46:32.855Z,18.41
2022-08-28T11:52:09.745Z,18.46
2022-08-28T11:57:41.020Z,18.31
2022-08-28T12:03:08.025Z,18.33
2022-08-28T12:08:11.596Z,18.35
2022-08-28T12:13:52.205Z,18.45
2022-08-28T12:18:53.822Z,18.35
2022-08-28T12:24:15.179Z,18.25
2022-08-28T12:29:37.461Z,18.21
2022-08-28T12:35:16.589Z,18.17
2022-08-28T12:40:53.278Z,18.32
2022-08-28T12:46:18.954Z,18.38
2022-08-28T12:51:39.401Z,18.45
2022-08-28T12:56:41.156Z,18.35
2022-08-28T13:01:44.525Z,18.31
2022-08-28T13:06:46.330Z,18.32
2022-08-28T13:11:51.445Z,18.38
2022-08-28T13:16:53.232Z,18.83
2022-08-28T13:22:01.979Z,19.45
2022-08-28T13:27:06.267Z,20.04
2022-08-28T13:32:17.454Z,20.26
2022-08-28T13:37:49.429Z,20.45
2022-08-28T13:43:02.226Z,20.35
2022-08-28T13:48:04.826Z,20.38
2022-08-28T13:53:08.245Z,20.21
2022-08-28T13:58:10.683Z,20.17
2022-08-28T14:03:35.789Z,20.07
2022-08-28T14:08:39.974Z,20.08
2022-08-28T14:13:47.178Z,20.20
2022-08-28T14:18:59.513Z,20.17
2022-08-28T14:24:02.515Z,20.41
2022-08-28T14:29:11.122Z,20.69
2022-08-28T14:34:19.572Z,20.56
2022-08-28T14:39:27.009Z,20.29
2022-08-28T14:44:28.792Z,20.18
2022-08-28T14:49:30.601Z,20.11
2022-08-28T14:54:33.747Z,20.08
2022-08-28T14:59:36.172Z,20.13
2022-08-28T15:04:38.173Z,20.06
2022-08-28T15:09:42.973Z,20.22
2022-08-28T15:14:54.854Z,20.28
2022-08-28T15:20:00.415Z,20.30
2022-08-28T15:25:03.286Z,20.30
2022-08-28T15:30:06.251Z,20.31
2022-08-28T15:35:08.716Z,20.35
2022-08-28T15:40:43.475Z,20.32
2022-08-28T15:45:45.745Z,20.29
2022-08-28T15:50:47.564Z,20.13
2022-08-28T15:55:50.474Z,20.21
2022-08-28T16:00:52.396Z,20.24
2022-08-28T16:05:54.497Z,20.24
2022-08-28T16:10:56.663Z,20.31
2022-08-28T16:15:59.591Z,20.33
2022-08-28T16:21:04.726Z,20.32
2022-08-28T16:26:09.283Z,20.26
2022-08-28T16:31:18.863Z,20.28
2022-08-28T16:36:23.747Z,20.26
2022-08-28T16:41:27.627Z,20.19
2022-08-28T16:46:29.956Z,20.05
2022-08-28T16:51:31.726Z,20.14
2022-08-28T16:56:33.859Z,20.17
2022-08-28T17:01:35.808Z,20.00
2022-08-28T17:06:37.991Z,20.07
2022-08-28T17:11:39.913Z,20.03
2022-08-28T17:16:41.745Z,20.04
2022-08-28T17:22:02.844Z,19.91
2022-08-28T17:27:05.863Z,19.87
2022-08-28T17:32:08.233Z,19.88
2022-08-28T17:37:11.064Z,19.79
2022-08-28T17:42:13.011Z,19.78
2022-08-28T17:47:14.846Z,19.70
2022-08-28T17:52:16.586Z,19.68
2022-08-28T17:57:18.348Z,19.62
2022-08-28T18:02:20.488Z,19.48
2022-08-28T18:07:23.648Z,19.45
2022-08-28T18:12:25.494Z,19.39
2022-08-28T18:17:28.196Z,19.38
2022-08-28T18:22:30.062Z,19.21
2022-08-28T18:27:33.626Z,19.15
2022-08-28T18:32:35.368Z,19.15
2022-08-28T18:37:37.566Z,19.13
2022-08-28T18:42:39.904Z,19.02
2022-08-28T18:47:41.615Z,18.96
2022-08-28T18:52:44.447Z,18.96
2022-08-28T18:57:46.156Z,18.92
2022-08-28T19:02:49.751Z,18.86
2022-08-28T19:07:52.346Z,18.67
2022-08-28T19:12:55.425Z,18.77
2022-08-28T19:18:00.262Z,18.71
2022-08-28T19:23:02.186Z,18.64
2022-08-28T19:28:04.184Z,18.63
2022-08-28T19:33:06.122Z,18.51
2022-08-28T19:38:08.017Z,18.42
2022-08-28T19:43:09.808Z,18.37
2022-08-28T19:48:18.744Z,18.27
2022-08-28T19:53:20.471Z,18.31
2022-08-28T19:58:22.219Z,18.14
2022-08-28T20:03:24.563Z,18.09
2022-08-28T20:08:26.381Z,18.05
2022-08-28T20:13:28.810Z,18.06
2022-08-28T20:18:30.539Z,17.91
2022-08-28T20:23:32.320Z,17.87
2022-08-28T20:28:34.125Z,17.84
2022-08-28T20:33:36.992Z,17.80
2022-08-28T20:38:40.697Z,17.77
2022-08-28T20:43:43.736Z,17.73
2022-08-28T20:48:45.957Z,17.61
2022-08-28T20:53:47.663Z,17.62
2022-08-28T20:58:49.388Z,17.59
2022-08-28T21:03:51.168Z,17.50
2022-08-28T21:08:53.515Z,17.55
2022-08-28T21:13:55.688Z,17.51
2022-08-28T21:19:15.213Z,17.47
2022-08-28T21:24:18.264Z,17.38
2022-08-28T21:29:22.745Z,17.36
2022-08-28T21:34:24.715Z,17.12
2022-08-28T21:39:26.435Z,17.17
2022-08-28T21:44:28.245Z,17.08
2022-08-28T21:49:30.098Z,17.00
2022-08-28T21:54:32.205Z,16.98
2022-08-28T21:59:37.986Z,17.05
2022-08-28T22:04:39.958Z,17.04
2022-08-28T22:09:42.453Z,16.98
2022-08-28T22:14:44.373Z,17.02
2022-08-28T22:19:46.594Z,17.00
2022-08-28T22:24:48.687Z,16.81
2022-08-28T22:29:51.000Z,16.78
2022-08-28T22:34:54.645Z,16.64
2022-08-28T22:39:57.431Z,16.59
2022-08-28T22:44:59.772Z,16.54
2022-08-28T22:50:01.881Z,16.51
2022-08-28T22:55:08.564Z,16.43
2022-08-28T23:00:20.250Z,16.46
2022-08-28T23:05:25.818Z,16.38
2022-08-28T23:10:48.334Z,16.40
2022-08-28T23:15:50.148Z,16.25
2022-08-28T23:20:52.461Z,16.15
2022-08-28T23:25:54.949Z,16.12
2022-08-28T23:30:56.761Z,16.06
2022-08-28T23:35:58.611Z,16.10
2022-08-28T23:41:02.062Z,16.06
2022-08-28T23:46:05.150Z,16.04
2022-08-28T23:51:13.038Z,15.73
2022-08-28T23:56:14.985Z,15.81
